^^
Datos históricos de la estación: Murcia-Puente Tocinos
Diario Informe para Febrero 15, 2019 Unidades:  Métrico    Ingés   Ambas
Diario Semanal Mensual Anual
  Máxima: Mínima: Promedio:
Temperatura: 30.4 °C 21.6 °C 25.2 °C
Punto de rocio: 12.8 °C 4.6 °C 7.3 °C
Humedad: 51% 24% 33%
Velocidad viento: 25.1km/h 3.2km/h 12.1km/h
Racha viento: 51.5km/h - -
Viento- - SSO
Presión: 1016.6 hPa 1011.8 hPa -
Precipitación: 0.0 mm    
 
 
Tabla de datos para Febrero 15, 2019
Hora Temperatura Punto de rocio Presión Viento Velocidad viento Racha viento Humedad Intensidad lluvia(por hora) Nubes
00:04 24.3 °C 12 °C 1011.8 hPa SSO 7.6 km/h 14 km/h 46.3% 0.0 mm
00:09 24.2 °C 12.2 °C 1011.8 hPa SSO 7.6 km/h 14.8 km/h 47% 0.0 mm
00:14 24.1 °C 12.1 °C 1011.8 hPa SSO 7.6 km/h 14.5 km/h 47.1% 0.0 mm
00:19 23.9 °C 12.2 °C 1011.9 hPa SO 7.8 km/h 13 km/h 48% 0.0 mm
00:24 23.9 °C 12.2 °C 1011.9 hPa SO 8.4 km/h 12.9 km/h 48% 0.0 mm
00:29 23.9 °C 12.2 °C 1011.9 hPa SO 7.5 km/h 9.7 km/h 48% 0.0 mm
00:34 23.8 °C 12.2 °C 1012.1 hPa SO 5.8 km/h 9.3 km/h 48.1% 0.0 mm
00:39 23.8 °C 12.5 °C 1012.1 hPa SO 5.4 km/h 11.1 km/h 49% 0.0 mm
00:44 23.8 °C 12.4 °C 1012.1 hPa SO 4.7 km/h 11.3 km/h 49% 0.0 mm
00:49 23.8 °C 12.5 °C 1012.2 hPa OSO 5 km/h 11.9 km/h 49.1% 0.0 mm
00:54 23.7 °C 12.8 °C 1012.2 hPa Oeste 5.8 km/h 11.3 km/h 50.6% 0.0 mm
00:59 23.6 °C 12.8 °C 1012.2 hPa OSO 6 km/h 11.3 km/h 50.9% 0.0 mm
01:04 23.4 °C 12.5 °C 1012.2 hPa SO 6.5 km/h 12.2 km/h 50.3% 0.0 mm
01:09 23.3 °C 12.3 °C 1012.1 hPa SO 6.5 km/h 13 km/h 50% 0.0 mm
01:14 23.3 °C 12.3 °C 1012.1 hPa SO 6.5 km/h 9.7 km/h 50.2% 0.0 mm
01:19 23.2 °C 12.5 °C 1012.2 hPa SSO 6.6 km/h 13 km/h 51% 0.0 mm
01:24 23.2 °C 12.4 °C 1012.2 hPa SSO 6.9 km/h 13 km/h 51% 0.0 mm
01:29 23.1 °C 12.4 °C 1012.2 hPa SSO 7.4 km/h 13.7 km/h 51% 0.0 mm
01:34 23.1 °C 12.2 °C 1012.2 hPa OSO 8.4 km/h 14.5 km/h 50.3% 0.0 mm
01:39 23.3 °C 11.4 °C 1012.1 hPa Oeste 8.1 km/h 15.6 km/h 47.3% 0.0 mm
01:44 23.5 °C 11 °C 1012.1 hPa Oeste 7.6 km/h 16.1 km/h 45.1% 0.0 mm
01:49 23.8 °C 9.6 °C 1012.1 hPa Oeste 8 km/h 18.5 km/h 40.8% 0.0 mm
01:54 24.1 °C 9.3 °C 1012.1 hPa Oeste 8.7 km/h 19.3 km/h 39.1% 0.0 mm
01:59 24.1 °C 8.7 °C 1012.1 hPa Oeste 8.3 km/h 20.9 km/h 37.5% 0.0 mm
02:04 24.1 °C 8.4 °C 1012.1 hPa Oeste 7.6 km/h 20.9 km/h 36.6% 0.0 mm
02:09 24.2 °C 7.6 °C 1012.1 hPa Oeste 8.2 km/h 16.7 km/h 34.6% 0.0 mm
02:14 24.2 °C 7.3 °C 1012.1 hPa OSO 9.5 km/h 16.1 km/h 34% 0.0 mm
02:19 24.2 °C 7 °C 1012.5 hPa OSO 8.5 km/h 14.8 km/h 33.3% 0.0 mm
02:24 24.3 °C 6.6 °C 1012.5 hPa OSO 6.5 km/h 14.5 km/h 32.1% 0.0 mm
02:29 24.3 °C 6.6 °C 1012.5 hPa OSO 6.5 km/h 12.9 km/h 32% 0.0 mm
02:34 24.3 °C 6.6 °C 1012.6 hPa Oeste 6.5 km/h 16.7 km/h 32% 0.0 mm
02:39 24.3 °C 6.5 °C 1012.6 hPa Oeste 6.6 km/h 16.1 km/h 32% 0.0 mm
02:44 24.2 °C 6.1 °C 1012.6 hPa ONO 6.9 km/h 19 km/h 31.1% 0.0 mm
02:49 24.2 °C 6 °C 1012.6 hPa ONO 7.9 km/h 23.3 km/h 30.9% 0.0 mm
02:54 24.2 °C 5.5 °C 1012.5 hPa ONO 10 km/h 34.3 km/h 30% 0.0 mm
02:59 24.1 °C 5.4 °C 1012.5 hPa ONO 11.7 km/h 33.8 km/h 30% 0.0 mm
03:04 24 °C 5.3 °C 1012.5 hPa ONO 14.8 km/h 30.6 km/h 29.9% 0.0 mm
03:09 23.9 °C 5 °C 1012.4 hPa ONO 16 km/h 47.3 km/h 29.4% 0.0 mm
03:14 23.9 °C 4.8 °C 1012.4 hPa ONO 18.4 km/h 51.5 km/h 29% 0.0 mm
03:19 23.9 °C 4.8 °C 1012.4 hPa ONO 19.8 km/h 51.5 km/h 29% 0.0 mm
03:24 23.8 °C 4.7 °C 1012.4 hPa ONO 22.5 km/h 40.2 km/h 29% 0.0 mm
03:29 23.8 °C 4.7 °C 1012.4 hPa ONO 21.4 km/h 38.9 km/h 29% 0.0 mm
03:34 23.7 °C 4.6 °C 1012.6 hPa ONO 19 km/h 41.2 km/h 29% 0.0 mm
03:39 23.7 °C 5.1 °C 1012.6 hPa ONO 19 km/h 41.8 km/h 29.9% 0.0 mm
03:44 23.6 °C 5 °C 1012.6 hPa Oeste 19 km/h 35.4 km/h 30% 0.0 mm
03:49 23.6 °C 4.9 °C 1012.7 hPa Oeste 18.8 km/h 35.4 km/h 30% 0.0 mm
03:54 23.4 °C 4.9 °C 1012.7 hPa ONO 18.4 km/h 34.3 km/h 30.1% 0.0 mm
03:59 23.4 °C 5.2 °C 1012.7 hPa Oeste 16.8 km/h 33.8 km/h 30.9% 0.0 mm
04:04 23.3 °C 5.2 °C 1012.8 hPa Oeste 14 km/h 25.9 km/h 30.9% 0.0 mm
04:09 23.3 °C 5.2 °C 1012.8 hPa Oeste 14 km/h 25.9 km/h 31% 0.0 mm
04:14 23.2 °C 5.1 °C 1012.8 hPa Oeste 14 km/h 25.7 km/h 31% 0.0 mm
04:19 23.2 °C 5.1 °C 1013.1 hPa OSO 13 km/h 22.5 km/h 31% 0.0 mm
04:24 23.1 °C 5.1 °C 1013.1 hPa Oeste 11.1 km/h 31.5 km/h 31% 0.0 mm
04:29 23 °C 5 °C 1013.1 hPa Oeste 12 km/h 33.5 km/h 31.1% 0.0 mm
04:34 22.9 °C 5.3 °C 1013.2 hPa Oeste 13.7 km/h 33.8 km/h 32% 0.0 mm
04:39 22.8 °C 5.3 °C 1013.2 hPa Oeste 14.6 km/h 29.8 km/h 32% 0.0 mm
04:44 22.8 °C 5.2 °C 1013.2 hPa Oeste 16.4 km/h 34.3 km/h 32% 0.0 mm
04:49 22.7 °C 5.3 °C 1013.3 hPa Oeste 15.9 km/h 33.8 km/h 32.3% 0.0 mm
04:54 22.7 °C 5.6 °C 1013.3 hPa Oeste 14.8 km/h 30.9 km/h 33% 0.0 mm
04:59 22.7 °C 5.5 °C 1013.3 hPa ONO 15.3 km/h 32.2 km/h 33% 0.0 mm
05:04 22.6 °C 5.5 °C 1013.3 hPa ONO 16.1 km/h 32.2 km/h 33% 0.0 mm
05:09 22.5 °C 5.6 °C 1013.3 hPa ONO 15 km/h 29 km/h 33.3% 0.0 mm
05:14 22.5 °C 5.8 °C 1013.3 hPa Oeste 13 km/h 28.2 km/h 34% 0.0 mm
05:19 22.4 °C 5.8 °C 1013.4 hPa Oeste 13.3 km/h 27.4 km/h 34% 0.0 mm
05:24 22.4 °C 6.1 °C 1013.4 hPa ONO 13.7 km/h 27 km/h 34.7% 0.0 mm
05:29 22.3 °C 6.1 °C 1013.4 hPa Oeste 12.8 km/h 27.8 km/h 35% 0.0 mm
05:34 22.3 °C 6.1 °C 1013.7 hPa Oeste 11.1 km/h 27.8 km/h 35% 0.0 mm
05:39 22.2 °C 6.4 °C 1013.7 hPa Oeste 11.4 km/h 27.4 km/h 36% 0.0 mm
05:44 22.2 °C 6.4 °C 1013.7 hPa Oeste 11.9 km/h 22.5 km/h 36% 0.0 mm
05:49 22.1 °C 6.3 °C 1013.8 hPa Oeste 11.9 km/h 22.5 km/h 36% 0.0 mm
05:54 22.1 °C 6.3 °C 1013.8 hPa Oeste 11.9 km/h 22.5 km/h 36% 0.0 mm
05:59 22 °C 6.2 °C 1013.8 hPa Oeste 11.9 km/h 24.5 km/h 36% 0.0 mm
06:04 21.9 °C 6.2 °C 1013.9 hPa Oeste 11.9 km/h 24.1 km/h 36% 0.0 mm
06:09 21.9 °C 6.2 °C 1013.9 hPa OSO 11.3 km/h 18.5 km/h 36% 0.0 mm
06:14 21.9 °C 6.2 °C 1013.9 hPa Oeste 10 km/h 22.5 km/h 36% 0.0 mm
06:19 21.9 °C 6.2 °C 1014.1 hPa Oeste 11 km/h 27.4 km/h 36% 0.0 mm
06:24 21.9 °C 6.2 °C 1014.1 hPa OSO 13 km/h 27.8 km/h 36% 0.0 mm
06:29 21.8 °C 6.1 °C 1014.1 hPa Oeste 12.4 km/h 22.5 km/h 36% 0.0 mm
06:34 21.8 °C 6.1 °C 1014.4 hPa OSO 11.1 km/h 18.5 km/h 36% 0.0 mm
06:39 21.8 °C 6 °C 1014.4 hPa OSO 10.7 km/h 19.3 km/h 36% 0.0 mm
06:44 21.7 °C 6 °C 1014.4 hPa OSO 10 km/h 17.7 km/h 36.2% 0.0 mm
06:49 21.7 °C 5.9 °C 1014.6 hPa OSO 9.8 km/h 18.3 km/h 36% 0.0 mm
06:54 21.7 °C 5.9 °C 1014.6 hPa Oeste 9.5 km/h 19.3 km/h 36% 0.0 mm
06:59 21.7 °C 5.9 °C 1014.6 hPa Oeste 9.2 km/h 16.7 km/h 35.8% 0.0 mm
07:04 21.7 °C 5.8 °C 1014.7 hPa OSO 8.7 km/h 19 km/h 35.8% 0.0 mm
07:09 21.7 °C 5.9 °C 1014.7 hPa OSO 9.5 km/h 26.2 km/h 35.8% 0.0 mm
07:14 21.6 °C 5.8 °C 1014.7 hPa OSO 11.1 km/h 25.7 km/h 35.6% 0.0 mm
07:19 21.6 °C 5.9 °C 1014.7 hPa OSO 10.6 km/h 19.3 km/h 36% 0.0 mm
07:24 21.6 °C 5.6 °C 1014.7 hPa OSO 9.5 km/h 29.8 km/h 35.2% 0.0 mm
07:29 21.6 °C 5.5 °C 1014.7 hPa OSO 10.7 km/h 30.6 km/h 35% 0.0 mm
07:34 21.7 °C 5.6 °C 1014.8 hPa OSO 13 km/h 25.9 km/h 35% 0.0 mm
07:39 21.7 °C 5.6 °C 1014.8 hPa OSO 12.8 km/h 25.9 km/h 35% 0.0 mm
07:44 21.8 °C 5.6 °C 1014.8 hPa OSO 12.2 km/h 25.9 km/h 35% 0.0 mm
07:49 21.8 °C 5.7 °C 1015.1 hPa Oeste 12.2 km/h 22.5 km/h 35% 0.0 mm
07:54 21.9 °C 5.8 °C 1015.1 hPa SO 12.2 km/h 20.9 km/h 35.3% 0.0 mm
07:59 21.8 °C 5.9 °C 1015.1 hPa OSO 10.9 km/h 17.2 km/h 35.5% 0.0 mm
08:04 21.8 °C 5.9 °C 1015.3 hPa OSO 8.7 km/h 20.9 km/h 35.7% 0.0 mm
08:09 21.9 °C 6.1 °C 1015.3 hPa OSO 9.1 km/h 20.9 km/h 35.9% 0.0 mm
08:14 21.9 °C 5.8 °C 1015.3 hPa SO 10 km/h 17.2 km/h 35.1% 0.0 mm
08:19 22.1 °C 5.9 °C 1015.4 hPa OSO 10 km/h 22.2 km/h 35% 0.0 mm
08:24 22.2 °C 6 °C 1015.4 hPa OSO 10 km/h 23.3 km/h 34.9% 0.0 mm
08:29 22.3 °C 5.9 °C 1015.4 hPa Oeste 10.4 km/h 24.1 km/h 34.6% 0.0 mm
08:34 22.4 °C 5.8 °C 1015.6 hPa Oeste 11.1 km/h 24.5 km/h 34% 0.0 mm
08:39 22.4 °C 5.8 °C 1015.6 hPa Oeste 11.9 km/h 28.2 km/h 34% 0.0 mm
08:44 22.4 °C 5.8 °C 1015.6 hPa Oeste 13.7 km/h 30.6 km/h 34% 0.0 mm
08:49 22.4 °C 5.8 °C 1015.8 hPa Oeste 13.8 km/h 30.6 km/h 34% 0.0 mm
08:54 22.4 °C 5.8 °C 1015.8 hPa Oeste 14 km/h 30.6 km/h 34% 0.0 mm
08:59 22.3 °C 5.7 °C 1015.8 hPa Oeste 15.2 km/h 30.6 km/h 34% 0.0 mm
09:04 22.3 °C 5.7 °C 1016.0 hPa Oeste 17.2 km/h 33.3 km/h 34% 0.0 mm
09:09 22.3 °C 5.7 °C 1016.0 hPa ONO 17.5 km/h 33.8 km/h 34% 0.0 mm
09:14 22.3 °C 5.7 °C 1016.0 hPa Oeste 18 km/h 33.8 km/h 34% 0.0 mm
09:19 22.4 °C 5.7 °C 1016.2 hPa ONO 18.4 km/h 31.5 km/h 34% 0.0 mm
09:24 22.5 °C 5.9 °C 1016.2 hPa ONO 19 km/h 32.2 km/h 34% 0.0 mm
09:29 22.7 °C 6 °C 1016.2 hPa ONO 18.1 km/h 29.6 km/h 34% 0.0 mm
09:34 22.7 °C 5.9 °C 1016.3 hPa Oeste 16.4 km/h 42 km/h 33.6% 0.0 mm
09:39 22.7 °C 5.6 °C 1016.3 hPa ONO 17.7 km/h 42.6 km/h 33% 0.0 mm
09:44 22.7 °C 5.6 °C 1016.3 hPa ONO 20.1 km/h 44.9 km/h 33% 0.0 mm
09:49 22.7 °C 5.6 °C 1016.4 hPa ONO 21.8 km/h 45.1 km/h 33% 0.0 mm
09:54 22.7 °C 5.6 °C 1016.4 hPa ONO 25.1 km/h 42.6 km/h 33% 0.0 mm
09:59 22.8 °C 5.7 °C 1016.4 hPa ONO 24.5 km/h 41.8 km/h 33.2% 0.0 mm
10:04 22.9 °C 6.1 °C 1016.5 hPa ONO 23.3 km/h 37 km/h 33.8% 0.0 mm
10:09 23.1 °C 6.1 °C 1016.5 hPa ONO 21.7 km/h 35.4 km/h 33.5% 0.0 mm
10:14 23.2 °C 6.1 °C 1016.5 hPa ONO 18.4 km/h 34.3 km/h 33.1% 0.0 mm
10:19 23.2 °C 6.1 °C 1016.6 hPa ONO 18.6 km/h 35.2 km/h 33% 0.0 mm
10:24 23.3 °C 5.9 °C 1016.6 hPa ONO 19 km/h 35.4 km/h 32.5% 0.0 mm
10:29 23.4 °C 6.2 °C 1016.6 hPa ONO 19 km/h 32.2 km/h 33% 0.0 mm
10:34 23.6 °C 6.2 °C 1016.6 hPa ONO 19 km/h 33.3 km/h 32.5% 0.0 mm
10:39 23.6 °C 6.1 °C 1016.6 hPa NO 18.8 km/h 33.8 km/h 32.4% 0.0 mm
10:44 23.6 °C 6.2 °C 1016.6 hPa ONO 18.4 km/h 30.6 km/h 32.5% 0.0 mm
10:49 23.7 °C 6.1 °C 1016.6 hPa ONO 18 km/h 31.7 km/h 32.1% 0.0 mm
10:54 23.9 °C 5.9 °C 1016.5 hPa ONO 17.2 km/h 32.2 km/h 31.5% 0.0 mm
10:59 23.9 °C 6 °C 1016.5 hPa ONO 16.7 km/h 32.2 km/h 31.5% 0.0 mm
11:04 24.1 °C 6 °C 1016.5 hPa ONO 15.6 km/h 27.8 km/h 31.1% 0.0 mm
11:09 24.2 °C 6 °C 1016.4 hPa Oeste 15.8 km/h 27.4 km/h 31% 0.0 mm
11:14 24.3 °C 6.2 °C 1016.4 hPa Oeste 16.1 km/h 26.2 km/h 31.1% 0.0 mm
11:19 24.6 °C 6.2 °C 1016.4 hPa Oeste 15.4 km/h 25.7 km/h 30.8% 0.0 mm
11:24 24.6 °C 5.9 °C 1016.4 hPa Oeste 14 km/h 22.5 km/h 30% 0.0 mm
11:29 24.7 °C 6 °C 1016.4 hPa ONO 13.3 km/h 22.5 km/h 30.1% 0.0 mm
11:34 24.8 °C 6.4 °C 1016.4 hPa ONO 11.9 km/h 24.1 km/h 30.7% 0.0 mm
11:39 24.9 °C 6.3 °C 1016.4 hPa Oeste 12.3 km/h 24.1 km/h 30.3% 0.0 mm
11:44 25 °C 6 °C 1016.4 hPa Oeste 13 km/h 24.1 km/h 29.5% 0.0 mm
11:49 25.1 °C 6 °C 1016.4 hPa OSO 13.2 km/h 27.8 km/h 29.4% 0.0 mm
11:54 25.2 °C 5.9 °C 1016.3 hPa Oeste 13.7 km/h 27.4 km/h 29% 0.0 mm
11:59 25.3 °C 6 °C 1016.3 hPa OSO 13.4 km/h 22.5 km/h 29% 0.0 mm
12:04 25.6 °C 6.2 °C 1016.3 hPa Oeste 13 km/h 20.9 km/h 29.1% 0.0 mm
12:09 25.8 °C 6.4 °C 1016.1 hPa ONO 11.9 km/h 20.9 km/h 29% 0.0 mm
12:14 26 °C 6.5 °C 1016.1 hPa Oeste 10 km/h 22.2 km/h 28.8% 0.0 mm
12:19 25.9 °C 6 °C 1016.2 hPa OSO 10.6 km/h 22.5 km/h 28% 0.0 mm
12:24 26 °C 6.1 °C 1016.2 hPa SO 11.9 km/h 22.5 km/h 28% 0.0 mm
12:29 26.3 °C 6.3 °C 1016.2 hPa SO 10.8 km/h 19.3 km/h 28% 0.0 mm
12:34 26.3 °C 6.1 °C 1016.2 hPa ONO 8.7 km/h 24.1 km/h 27.6% 0.0 mm
12:39 26.2 °C 6.1 °C 1016.0 hPa Oeste 9.2 km/h 24.1 km/h 27.8% 0.0 mm
12:44 26.2 °C 6.2 °C 1016.0 hPa OSO 10.3 km/h 17.2 km/h 28% 0.0 mm
12:49 26.3 °C 6 °C 1016.0 hPa OSO 10.3 km/h 22.5 km/h 27.3% 0.0 mm
12:54 26.3 °C 6.3 °C 1016.0 hPa Sur 10.3 km/h 22.5 km/h 28% 0.0 mm
12:59 26.4 °C 6.4 °C 1016.0 hPa OSO 9.7 km/h 22.5 km/h 27.9% 0.0 mm
13:04 26.7 °C 6.3 °C 1016.0 hPa Oeste 8.7 km/h 19 km/h 27.4% 0.0 mm
13:09 26.8 °C 6.2 °C 1015.9 hPa Oeste 8.3 km/h 19.3 km/h 27% 0.0 mm
13:14 26.8 °C 6.2 °C 1015.9 hPa ONO 7.6 km/h 19.3 km/h 27% 0.0 mm
13:19 27 °C 6.5 °C 1015.9 hPa ONO 7.6 km/h 17.7 km/h 27.2% 0.0 mm
13:24 27.2 °C 6.6 °C 1015.7 hPa Oeste 7.6 km/h 11.3 km/h 27% 0.0 mm
13:29 27.3 °C 6.5 °C 1015.7 hPa SE 7 km/h 13 km/h 26.6% 0.0 mm
13:34 27.6 °C 6.6 °C 1015.7 hPa OSO 5.8 km/h 20.4 km/h 26.4% 0.0 mm
13:39 27.7 °C 6.4 °C 1015.6 hPa OSO 6.7 km/h 20.9 km/h 26% 0.0 mm
13:44 27.5 °C 6.3 °C 1015.6 hPa SO 8.4 km/h 20.9 km/h 26% 0.0 mm
13:49 27.4 °C 6.2 °C 1015.6 hPa ONO 8.7 km/h 19.3 km/h 26% 0.0 mm
13:54 27.5 °C 6.3 °C 1015.4 hPa SO 9.5 km/h 13.7 km/h 26% 0.0 mm
13:59 27.8 °C 6.5 °C 1015.4 hPa SSO 8.1 km/h 16.1 km/h 26% 0.0 mm
14:04 27.9 °C 6.3 °C 1015.4 hPa OSO 5.8 km/h 16.7 km/h 25.5% 0.0 mm
14:09 28.1 °C 6.2 °C 1015.4 hPa Oeste 6 km/h 16.1 km/h 25.1% 0.0 mm
14:14 28.2 °C 6.4 °C 1015.4 hPa NO 6.5 km/h 10.3 km/h 25.3% 0.0 mm
14:19 28.3 °C 6.4 °C 1015.4 hPa Oeste 6.2 km/h 13 km/h 25% 0.0 mm
14:24 28.4 °C 6.6 °C 1015.0 hPa NNO 5.8 km/h 13 km/h 25.2% 0.0 mm
14:29 28.4 °C 6.5 °C 1015.0 hPa NO 6.6 km/h 16.7 km/h 25% 0.0 mm
14:34 28.4 °C 6.6 °C 1015.0 hPa ONO 8.4 km/h 16.1 km/h 25.2% 0.0 mm
14:39 28.7 °C 6.7 °C 1014.9 hPa North 8.1 km/h 14.5 km/h 25.1% 0.0 mm
14:44 28.8 °C 6.8 °C 1014.9 hPa NO 7.6 km/h 14.8 km/h 25% 0.0 mm
14:49 28.8 °C 6.9 °C 1014.9 hPa OSO 7.6 km/h 16.7 km/h 25% 0.0 mm
14:54 28.8 °C 6.9 °C 1014.7 hPa Oeste 7.6 km/h 16.1 km/h 25% 0.0 mm
14:59 29 °C 7 °C 1014.7 hPa NO 7.9 km/h 16.7 km/h 25% 0.0 mm
15:04 29.3 °C 6.9 °C 1014.7 hPa NNO 8.4 km/h 16.1 km/h 24.5% 0.0 mm
15:09 29.4 °C 7.1 °C 1014.4 hPa Oeste 8.4 km/h 14.5 km/h 24.7% 0.0 mm
15:14 29.5 °C 6.8 °C 1014.4 hPa Oeste 8.4 km/h 17.2 km/h 24% 0.0 mm
15:19 29.6 °C 7 °C 1014.4 hPa NO 8.4 km/h 17.7 km/h 24.3% 0.0 mm
15:24 29.8 °C 7.3 °C 1014.2 hPa North 8.4 km/h 16.1 km/h 24.3% 0.0 mm
15:29 29.9 °C 7.1 °C 1014.2 hPa NNE 7.7 km/h 14.5 km/h 24% 0.0 mm
15:34 29.9 °C 7.1 °C 1014.2 hPa ONO 6.5 km/h 13 km/h 24% 0.0 mm
15:39 29.9 °C 7.3 °C 1014.1 hPa SSE 6.5 km/h 16.4 km/h 24.3% 0.0 mm
15:44 30.2 °C 7.7 °C 1014.1 hPa ENE 6.5 km/h 20.4 km/h 24.5% 0.0 mm
15:49 30.3 °C 7.5 °C 1014.1 hPa Este 6.6 km/h 20.9 km/h 24% 0.0 mm
15:54 30.3 °C 7.5 °C 1014.0 hPa NE 6.9 km/h 13 km/h 24% 0.0 mm
15:59 30.3 °C 7.6 °C 1014.0 hPa ENE 6.9 km/h 20.9 km/h 24.1% 0.0 mm
16:04 30.4 °C 9.1 °C 1014.0 hPa Este 6.9 km/h 22.5 km/h 26.6% 0.0 mm
16:09 30.4 °C 9.7 °C 1013.8 hPa Este 8 km/h 22.5 km/h 27.8% 0.0 mm
16:14 30.3 °C 10.7 °C 1013.8 hPa SE 10 km/h 37 km/h 29.8% 0.0 mm
16:19 30.2 °C 11.6 °C 1013.9 hPa SE 11.3 km/h 37 km/h 31.9% 0.0 mm
16:24 30 °C 11.6 °C 1013.9 hPa SE 14 km/h 33.3 km/h 32.3% 0.0 mm
16:29 29.7 °C 11.5 °C 1013.9 hPa SE 15.5 km/h 33.8 km/h 32.5% 0.0 mm
16:34 29.6 °C 11.4 °C 1013.9 hPa ESE 18.4 km/h 30.6 km/h 32.4% 0.0 mm
16:39 29.5 °C 11.1 °C 1013.7 hPa SE 18.3 km/h 34.3 km/h 32% 0.0 mm
16:44 29.3 °C 10.6 °C 1013.7 hPa SE 18 km/h 38.9 km/h 31.3% 0.0 mm
16:49 29.1 °C 10.4 °C 1013.7 hPa ESE 19.4 km/h 38.6 km/h 31.5% 0.0 mm
16:54 29.2 °C 10.3 °C 1013.7 hPa SE 22.1 km/h 33.8 km/h 31% 0.0 mm
16:59 29.4 °C 10.2 °C 1013.7 hPa ESE 20.3 km/h 33.8 km/h 30.4% 0.0 mm
17:04 29.3 °C 10 °C 1013.7 hPa ESE 17.2 km/h 33.8 km/h 30.1% 0.0 mm
17:09 29.2 °C 9.9 °C 1013.7 hPa SE 17.6 km/h 32.2 km/h 30% 0.0 mm
17:14 29.4 °C 10 °C 1013.7 hPa SE 18.4 km/h 27.8 km/h 30% 0.0 mm
17:19 29.6 °C 9.9 °C 1013.7 hPa SE 17.5 km/h 28.2 km/h 29.4% 0.0 mm
17:24 29.6 °C 9.8 °C 1013.6 hPa SE 15.6 km/h 27.4 km/h 29.3% 0.0 mm
17:29 29.5 °C 9.6 °C 1013.6 hPa ESE 16.1 km/h 29.8 km/h 29% 0.0 mm
17:34 29.3 °C 9.5 °C 1013.6 hPa ESE 17.2 km/h 30.6 km/h 29% 0.0 mm
17:39 29.3 °C 9.4 °C 1013.5 hPa ESE 17.6 km/h 30.6 km/h 29% 0.0 mm
17:44 29.4 °C 9.5 °C 1013.5 hPa SE 18.4 km/h 27.8 km/h 29% 0.0 mm
17:49 29.4 °C 9.5 °C 1013.5 hPa SE 17.6 km/h 29.6 km/h 29% 0.0 mm
17:54 29.3 °C 9.4 °C 1013.4 hPa SE 15.6 km/h 29.6 km/h 29% 0.0 mm
17:59 29.3 °C 9.5 °C 1013.4 hPa SE 15.6 km/h 29 km/h 29% 0.0 mm
18:04 29.2 °C 9.4 °C 1013.4 hPa SE 15.6 km/h 27.8 km/h 29% 0.0 mm
18:09 29.1 °C 9.2 °C 1013.4 hPa ESE 15.9 km/h 38.9 km/h 28.9% 0.0 mm
18:14 28.8 °C 9 °C 1013.4 hPa ESE 16.4 km/h 38.6 km/h 29% 0.0 mm
18:19 29 °C 9.1 °C 1013.4 hPa ESE 16.3 km/h 25.7 km/h 29% 0.0 mm
18:24 29.2 °C 9.1 °C 1013.3 hPa ESE 16.1 km/h 24.1 km/h 28.5% 0.0 mm
18:29 29.3 °C 8.8 °C 1013.3 hPa SE 15.3 km/h 25.9 km/h 27.8% 0.0 mm
18:34 29.2 °C 8.7 °C 1013.3 hPa ESE 13.7 km/h 27.4 km/h 27.9% 0.0 mm
18:39 29 °C 8.6 °C 1013.3 hPa SE 14.4 km/h 27.8 km/h 28% 0.0 mm
18:44 29 °C 8.8 °C 1013.3 hPa ESE 17.2 km/h 24.1 km/h 28.2% 0.0 mm
18:49 29.1 °C 8.7 °C 1013.3 hPa ESE 15.8 km/h 24.1 km/h 28% 0.0 mm
18:54 29 °C 8.6 °C 1013.3 hPa ESE 13 km/h 27.8 km/h 28% 0.0 mm
18:59 28.7 °C 8.5 °C 1013.3 hPa ESE 14.9 km/h 27.8 km/h 28.2% 0.0 mm
19:04 28.7 °C 8.9 °C 1013.4 hPa ESE 18 km/h 27.4 km/h 29% 0.0 mm
19:09 28.7 °C 8.9 °C 1013.4 hPa ESE 16.9 km/h 25.9 km/h 29% 0.0 mm
19:14 28.6 °C 8.8 °C 1013.4 hPa ESE 14.8 km/h 25.9 km/h 29% 0.0 mm
19:19 28.5 °C 8.8 °C 1013.5 hPa ESE 15.1 km/h 25.9 km/h 29% 0.0 mm
19:24 28.3 °C 8.6 °C 1013.5 hPa ESE 15.6 km/h 25.9 km/h 29% 0.0 mm
19:29 28.2 °C 8.6 °C 1013.5 hPa ESE 16.2 km/h 31.7 km/h 29.2% 0.0 mm
19:34 28.2 °C 8.6 °C 1013.6 hPa SE 17.2 km/h 32.2 km/h 29.3% 0.0 mm
19:39 28.2 °C 8.5 °C 1013.6 hPa ESE 16 km/h 27.4 km/h 29% 0.0 mm
19:44 28.2 °C 8.5 °C 1013.6 hPa SE 13.7 km/h 30.6 km/h 29% 0.0 mm
19:49 28.2 °C 8.5 °C 1013.8 hPa SE 14.1 km/h 30.6 km/h 29% 0.0 mm
19:54 28.1 °C 8.4 °C 1013.8 hPa ESE 14.8 km/h 24.1 km/h 29% 0.0 mm
19:59 28.1 °C 8.4 °C 1013.8 hPa ESE 14.2 km/h 24.1 km/h 29% 0.0 mm
20:04 27.9 °C 8.2 °C 1013.9 hPa ESE 13 km/h 22.5 km/h 29% 0.0 mm
20:09 27.9 °C 8.2 °C 1013.9 hPa SE 12.8 km/h 20.9 km/h 29% 0.0 mm
20:14 27.8 °C 8.1 °C 1013.9 hPa ESE 12.2 km/h 20.9 km/h 29% 0.0 mm
20:19 27.7 °C 8.1 °C 1014.1 hPa ESE 11.9 km/h 21.7 km/h 29% 0.0 mm
20:24 27.6 °C 8 °C 1014.1 hPa ESE 11.1 km/h 22.5 km/h 29% 0.0 mm
20:29 27.5 °C 7.9 °C 1014.1 hPa ESE 11.4 km/h 22.2 km/h 29% 0.0 mm
20:34 27.3 °C 7.8 °C 1014.2 hPa ESE 11.9 km/h 22.5 km/h 29.2% 0.0 mm
20:39 27.2 °C 7.6 °C 1014.2 hPa ESE 11.9 km/h 18.5 km/h 29% 0.0 mm
20:44 27.1 °C 7.7 °C 1014.2 hPa ESE 11.9 km/h 19.3 km/h 29.4% 0.0 mm
20:49 27.1 °C 7.6 °C 1014.4 hPa ESE 11.1 km/h 17.7 km/h 29.2% 0.0 mm
20:54 26.9 °C 7.3 °C 1014.4 hPa ESE 9.5 km/h 16.7 km/h 29% 0.0 mm
20:59 26.8 °C 7.2 °C 1014.4 hPa Este 9.7 km/h 16.1 km/h 29% 0.0 mm
21:04 26.7 °C 7.3 °C 1014.5 hPa ESE 10 km/h 18.5 km/h 29.3% 0.0 mm
21:09 26.4 °C 7.4 °C 1014.5 hPa ESE 10.3 km/h 19.3 km/h 30% 0.0 mm
21:14 26.2 °C 7.3 °C 1014.5 hPa ESE 11.1 km/h 24.5 km/h 30% 0.0 mm
21:19 26.1 °C 7.1 °C 1014.6 hPa ESE 11.4 km/h 24.1 km/h 30% 0.0 mm
21:24 25.8 °C 7.4 °C 1014.6 hPa ESE 11.9 km/h 20.4 km/h 30.9% 0.0 mm
21:29 25.7 °C 7.3 °C 1014.6 hPa ESE 12 km/h 20.9 km/h 31% 0.0 mm
21:34 25.6 °C 7.2 °C 1014.7 hPa ESE 12.2 km/h 20.9 km/h 31% 0.0 mm
21:39 25.3 °C 7 °C 1014.7 hPa ESE 12.5 km/h 23.3 km/h 31% 0.0 mm
21:44 25.2 °C 7 °C 1014.7 hPa ESE 13 km/h 24.1 km/h 31.2% 0.0 mm
21:49 25.2 °C 7 °C 1014.9 hPa ESE 12.8 km/h 22.5 km/h 31.3% 0.0 mm
21:54 25 °C 6.9 °C 1014.9 hPa ESE 12.2 km/h 20.9 km/h 31.6% 0.0 mm
21:59 24.9 °C 7 °C 1014.9 hPa ESE 11.4 km/h 20.9 km/h 32% 0.0 mm
22:04 24.8 °C 7 °C 1015.0 hPa ESE 10 km/h 18.3 km/h 32% 0.0 mm
22:09 24.7 °C 6.8 °C 1015.0 hPa ESE 10.3 km/h 19.3 km/h 31.7% 0.0 mm
22:14 24.7 °C 6.4 °C 1015.0 hPa ESE 11.1 km/h 19.3 km/h 31% 0.0 mm
22:19 24.5 °C 6.6 °C 1015.4 hPa ESE 11.4 km/h 19.3 km/h 31.7% 0.0 mm
22:24 24.4 °C 6.6 °C 1015.4 hPa ESE 11.9 km/h 16.1 km/h 32% 0.0 mm
22:29 24.3 °C 6.8 °C 1015.4 hPa ESE 10.9 km/h 13.7 km/h 32.5% 0.0 mm
22:34 24.2 °C 6.9 °C 1015.7 hPa ESE 8.7 km/h 14.5 km/h 33% 0.0 mm
22:39 24.2 °C 6.9 °C 1015.7 hPa ESE 7.9 km/h 12.2 km/h 33% 0.0 mm
22:44 24 °C 6.7 °C 1015.7 hPa Este 6.5 km/h 13 km/h 33% 0.0 mm
22:49 23.9 °C 6.7 °C 1016.0 hPa Este 6.2 km/h 11.3 km/h 33% 0.0 mm
22:54 23.8 °C 6.6 °C 1016.0 hPa ENE 5.8 km/h 11.3 km/h 33.2% 0.0 mm
22:59 23.8 °C 6.9 °C 1016.0 hPa NE 4.8 km/h 11.1 km/h 33.8% 0.0 mm
23:04 23.6 °C 7.1 °C 1016.2 hPa NNE 3.2 km/h 13 km/h 34.8% 0.0 mm
23:09 23.4 °C 7.7 °C 1016.2 hPa NNE 5 km/h 13.7 km/h 36.7% 0.0 mm
23:14 23.2 °C 7.9 °C 1016.2 hPa NE 8.4 km/h 16.7 km/h 37.4% 0.0 mm
23:19 23.1 °C 8 °C 1016.5 hPa NE 8.7 km/h 16.1 km/h 38% 0.0 mm
23:24 23.1 °C 8.3 °C 1016.5 hPa NE 9.5 km/h 14.5 km/h 38.8% 0.0 mm
23:29 23 °C 8.4 °C 1016.5 hPa NE 9.2 km/h 14.8 km/h 39.3% 0.0 mm
23:34 22.9 °C 8.6 °C 1016.6 hPa NE 8.7 km/h 14.5 km/h 40% 0.0 mm
23:39 22.8 °C 8.6 °C 1016.6 hPa NE 8.3 km/h 13 km/h 40.4% 0.0 mm
23:44 22.7 °C 8.7 °C 1016.6 hPa NE 7.6 km/h 14.8 km/h 41% 0.0 mm
23:49 22.5 °C 8.6 °C 1016.6 hPa NNE 7.8 km/h 14.5 km/h 41% 0.0 mm
23:54 22.4 °C 8.6 °C 1016.6 hPa NNE 8.4 km/h 11.3 km/h 41.3% 0.0 mm
23:59 22.3 °C 8.7 °C 1016.6 hPa NNE 7.4 km/h 10 km/h 42% 0.0 mm
Murcia-Puente Tocinos, España
Compliments of Weather Underground - 3 mb

La estación de MeteoMurcia.com, publica sus datos en los siguientes proyectos:

Weather Underground PWS IMURCIAP2 Meteoclimatic www.awekas.at

W3Counter
Web Analytics